createdAt,value
2018-08-06T00:01:05.909Z,41.95
2018-08-06T00:03:37.663Z,42.18
2018-08-06T00:06:09.218Z,42.03
2018-08-06T00:08:40.728Z,41.58
2018-08-06T00:11:12.216Z,41.86
2018-08-06T00:13:43.747Z,41.58
2018-08-06T00:16:15.348Z,41.74
2018-08-06T00:18:46.797Z,41.72
2018-08-06T00:21:18.303Z,41.95
2018-08-06T00:23:49.783Z,42.67
2018-08-06T00:26:21.797Z,41.98
2018-08-06T00:28:53.035Z,41.94
2018-08-06T00:31:24.392Z,41.46
2018-08-06T00:33:55.852Z,42.34
2018-08-06T00:36:26.612Z,41.96
2018-08-06T00:38:58.218Z,42.25
2018-08-06T00:41:29.773Z,42.26
2018-08-06T00:44:01.284Z,41.55
2018-08-06T00:46:32.758Z,41.96
2018-08-06T00:49:04.740Z,42.20
2018-08-06T00:51:36.213Z,42.51
2018-08-06T00:54:07.683Z,42.45
2018-08-06T00:56:39.220Z,42.51
2018-08-06T00:59:10.774Z,41.96
2018-08-06T01:01:42.313Z,42.44
2018-08-06T01:04:13.788Z,41.90
2018-08-06T01:06:45.232Z,42.40
2018-08-06T01:09:16.746Z,42.01
2018-08-06T01:11:48.387Z,42.22
2018-08-06T01:14:19.757Z,42.61
2018-08-06T01:16:51.420Z,42.33
2018-08-06T01:19:22.805Z,42.58
2018-08-06T01:21:54.393Z,42.46
2018-08-06T01:24:25.745Z,42.59
2018-08-06T01:26:57.044Z,42.68
2018-08-06T01:29:28.608Z,42.82
2018-08-06T01:31:59.894Z,42.38
2018-08-06T01:34:30.583Z,42.29
2018-08-06T01:37:02.545Z,43.17
2018-08-06T01:39:34.219Z,42.93
2018-08-06T01:42:05.699Z,42.99
2018-08-06T01:44:37.418Z,42.48
2018-08-06T01:47:08.903Z,43.02
2018-08-06T01:49:40.389Z,42.61
2018-08-06T01:52:11.864Z,43.00
2018-08-06T01:54:42.560Z,42.52
2018-08-06T01:57:14.224Z,43.27
2018-08-06T01:59:45.719Z,42.52
2018-08-06T02:02:17.223Z,42.92
2018-08-06T02:04:48.710Z,42.80
2018-08-06T02:07:20.322Z,42.99
2018-08-06T02:09:51.806Z,42.85
2018-08-06T02:12:23.375Z,42.84
2018-08-06T02:14:54.785Z,43.06
2018-08-06T02:17:26.322Z,42.75
2018-08-06T02:19:57.854Z,43.21
2018-08-06T02:22:28.349Z,42.76
2018-08-06T02:24:59.775Z,42.91
2018-08-06T02:27:31.437Z,43.02
2018-08-06T02:30:02.758Z,43.38
2018-08-06T02:32:33.728Z,43.26
2018-08-06T02:35:05.152Z,43.11
2018-08-06T02:37:36.722Z,42.69
2018-08-06T02:40:11.202Z,43.05
2018-08-06T02:42:43.309Z,42.84
2018-08-06T02:45:14.717Z,43.26
2018-08-06T02:47:46.402Z,43.39
2018-08-06T02:50:17.911Z,43.38
2018-08-06T02:52:49.453Z,43.07
2018-08-06T02:55:20.818Z,43.29
2018-08-06T02:57:51.584Z,43.62
2018-08-06T03:00:23.222Z,43.52
2018-08-06T03:02:54.765Z,43.24
2018-08-06T03:05:26.229Z,43.49
2018-08-06T03:07:57.718Z,43.33
2018-08-06T03:10:29.300Z,43.42
2018-08-06T03:13:00.753Z,43.44
2018-08-06T03:15:32.282Z,43.51
2018-08-06T03:18:03.749Z,43.31
2018-08-06T03:20:35.382Z,43.68
2018-08-06T03:23:06.863Z,43.22
2018-08-06T03:25:37.608Z,43.07
2018-08-06T03:28:08.972Z,43.56
2018-08-06T03:30:40.574Z,43.44
2018-08-06T03:33:11.985Z,43.46
2018-08-06T03:35:43.603Z,43.25
2018-08-06T03:38:15.725Z,43.12
2018-08-06T03:40:47.327Z,43.70
2018-08-06T03:43:18.819Z,43.86
2018-08-06T03:45:49.583Z,43.22
2018-08-06T03:48:21.008Z,43.13
2018-08-06T03:50:52.680Z,43.39
2018-08-06T03:53:24.200Z,44.09
2018-08-06T03:55:55.709Z,43.79
2018-08-06T03:58:27.308Z,44.17
2018-08-06T04:00:58.692Z,43.80
2018-08-06T04:03:30.859Z,44.21
2018-08-06T04:06:02.644Z,44.55
2018-08-06T04:08:34.207Z,44.07
2018-08-06T04:11:06.553Z,44.42
2018-08-06T04:13:38.283Z,43.97
2018-08-06T04:16:10.316Z,44.30
2018-08-06T04:18:41.853Z,44.69
2018-08-06T04:21:12.674Z,44.25
2018-08-06T04:23:44.220Z,44.43
2018-08-06T04:29:05.884Z,43.95
2018-08-06T04:31:37.577Z,43.87
2018-08-06T04:34:09.228Z,43.31
2018-08-06T04:36:40.736Z,43.39
2018-08-06T04:39:12.319Z,43.28
2018-08-06T04:41:43.748Z,43.10
2018-08-06T04:44:15.333Z,42.94
2018-08-06T04:46:46.887Z,42.95
2018-08-06T04:49:17.660Z,43.21
2018-08-06T04:51:49.077Z,42.52
2018-08-06T04:54:20.661Z,42.67
2018-08-06T04:56:52.220Z,42.06
2018-08-06T04:59:23.692Z,42.51
2018-08-06T05:01:55.241Z,42.40
2018-08-06T05:04:26.864Z,41.85
2018-08-06T05:06:57.610Z,41.67
2018-08-06T05:09:33.224Z,41.90
2018-08-06T05:12:04.698Z,41.84
2018-08-06T05:14:36.684Z,41.50
2018-08-06T05:17:08.686Z,42.14
2018-08-06T05:19:40.335Z,42.06
2018-08-06T05:22:11.832Z,42.01
2018-08-06T05:24:42.546Z,42.12
2018-08-06T05:27:14.223Z,41.52
2018-08-06T05:29:45.736Z,42.10
2018-08-06T05:32:16.814Z,41.79
2018-08-06T05:34:48.234Z,41.70
2018-08-06T05:37:19.814Z,41.72
2018-08-06T05:39:51.777Z,42.12
2018-08-06T05:42:23.663Z,41.67
2018-08-06T05:44:55.211Z,41.78
2018-08-06T05:47:26.899Z,42.08
2018-08-06T05:49:57.523Z,41.85
2018-08-06T05:52:29.390Z,41.54
2018-08-06T05:55:01.212Z,41.14
2018-08-06T05:57:32.751Z,41.02
2018-08-06T06:00:04.312Z,41.43
2018-08-06T06:02:35.916Z,41.11
2018-08-06T06:05:07.527Z,40.10
2018-08-06T06:07:39.234Z,41.12
2018-08-06T06:10:14.750Z,40.60
2018-08-06T06:12:46.670Z,40.91
2018-08-06T06:15:18.787Z,40.20
2018-08-06T06:17:50.313Z,41.23
2018-08-06T06:20:21.790Z,40.91
2018-08-06T06:22:53.044Z,40.56
2018-08-06T06:25:25.733Z,40.12
2018-08-06T06:27:57.320Z,40.32
2018-08-06T06:30:28.927Z,40.23
2018-08-06T06:33:01.216Z,40.49
2018-08-06T06:35:32.737Z,39.99
2018-08-06T06:38:04.308Z,39.75
2018-08-06T06:40:35.726Z,38.37
2018-08-06T06:43:07.314Z,38.65
2018-08-06T06:45:38.796Z,39.12
2018-08-06T06:48:10.233Z,38.71
2018-08-06T06:50:41.763Z,39.54
2018-08-06T06:53:13.419Z,38.83
2018-08-06T06:55:44.778Z,39.41
2018-08-06T06:58:16.298Z,38.18
2018-08-06T07:00:47.818Z,39.45
2018-08-06T07:03:18.586Z,38.15
2018-08-06T07:05:50.232Z,39.36
2018-08-06T07:08:21.857Z,39.35
2018-08-06T07:10:52.615Z,39.33
2018-08-06T07:13:24.211Z,38.52
2018-08-06T07:15:55.770Z,39.53
2018-08-06T07:18:27.589Z,39.44
2018-08-06T07:20:58.872Z,38.50
2018-08-06T07:23:29.619Z,39.46
2018-08-06T07:26:01.887Z,39.78
2018-08-06T07:28:32.511Z,39.72
2018-08-06T07:31:04.218Z,39.49
2018-08-06T07:33:35.899Z,39.55
2018-08-06T07:36:07.693Z,38.36
2018-08-06T07:38:39.400Z,38.80
2018-08-06T07:41:11.223Z,39.24
2018-08-06T07:43:42.741Z,39.15
2018-08-06T07:46:14.368Z,37.86
2018-08-06T07:48:46.219Z,38.95
2018-08-06T07:51:17.791Z,39.25
2018-08-06T07:53:49.295Z,38.11
2018-08-06T07:56:20.752Z,38.32
2018-08-06T07:58:52.790Z,38.25
2018-08-06T08:01:24.446Z,37.83
2018-08-06T08:03:56.305Z,36.47
2018-08-06T08:06:27.894Z,39.60
2018-08-06T08:08:58.674Z,38.02
2018-08-06T08:11:30.663Z,37.75
2018-08-06T08:14:02.376Z,40.28
2018-08-06T08:16:33.744Z,41.19
2018-08-06T08:19:05.647Z,40.93
2018-08-06T08:21:37.329Z,38.68
2018-08-06T08:24:08.846Z,37.03
2018-08-06T08:26:39.681Z,40.89
2018-08-06T08:29:11.309Z,39.65
2018-08-06T08:31:42.832Z,41.60
2018-08-06T08:34:13.631Z,39.26
2018-08-06T08:36:45.732Z,39.36
2018-08-06T08:39:17.510Z,37.94
2018-08-06T08:41:49.223Z,37.38
2018-08-06T08:44:20.752Z,36.64
2018-08-06T08:46:52.312Z,39.01
2018-08-06T08:49:23.802Z,37.72
2018-08-06T08:51:55.507Z,36.21
2018-08-06T08:54:27.224Z,38.34
2018-08-06T08:56:58.870Z,38.82
2018-08-06T08:59:29.569Z,37.02
2018-08-06T09:04:31.757Z,36.13
2018-08-06T09:07:03.440Z,38.45
2018-08-06T09:09:34.857Z,37.90
2018-08-06T09:12:05.602Z,38.82
2018-08-06T09:14:37.218Z,40.66
2018-08-06T09:17:09.814Z,36.18
2018-08-06T09:19:40.583Z,39.84
2018-08-06T09:22:12.222Z,36.20
2018-08-06T09:24:43.797Z,35.42
2018-08-06T09:27:15.462Z,35.62
2018-08-06T09:29:46.890Z,35.63
2018-08-06T09:32:17.598Z,35.17
2018-08-06T09:34:48.973Z,35.47
2018-08-06T09:37:20.640Z,35.14
2018-08-06T09:39:52.207Z,34.91
2018-08-06T09:42:23.708Z,37.74
2018-08-06T09:44:55.790Z,41.02
2018-08-06T09:47:27.393Z,41.18
2018-08-06T09:49:58.845Z,39.36
2018-08-06T09:52:29.643Z,35.87
2018-08-06T09:55:02.738Z,39.96
2018-08-06T09:57:35.202Z,41.19
2018-08-06T10:00:15.300Z,41.19
2018-08-06T10:02:47.329Z,41.41
2018-08-06T10:05:19.390Z,41.57
2018-08-06T10:07:50.744Z,41.70
2018-08-06T10:10:22.607Z,41.63
2018-08-06T10:12:54.224Z,41.57
2018-08-06T10:15:25.742Z,41.36
2018-08-06T10:17:57.316Z,41.19
2018-08-06T10:20:28.255Z,40.99
2018-08-06T10:22:59.737Z,38.83
2018-08-06T10:25:31.359Z,41.06
2018-08-06T10:28:02.983Z,39.75
2018-08-06T10:33:15.808Z,36.04
2018-08-06T10:35:47.200Z,36.00
2018-08-06T10:38:18.798Z,35.37
2018-08-06T10:40:50.380Z,36.02
2018-08-06T10:43:21.837Z,37.82
2018-08-06T10:45:52.459Z,36.26
2018-08-06T10:48:24.023Z,38.72
2018-08-06T10:50:55.831Z,36.26
2018-08-06T10:53:26.612Z,41.10
2018-08-06T10:55:58.249Z,37.67
2018-08-06T10:58:29.672Z,39.10
2018-08-06T11:01:01.223Z,37.10
2018-08-06T11:03:32.651Z,38.56
2018-08-06T11:06:04.438Z,37.36
2018-08-06T11:08:36.188Z,37.27
2018-08-06T11:11:07.713Z,37.21
2018-08-06T11:13:39.428Z,37.79
2018-08-06T11:16:10.910Z,39.07
2018-08-06T11:18:42.389Z,41.09
2018-08-06T11:21:13.748Z,40.50
2018-08-06T11:23:44.863Z,40.86
2018-08-06T11:26:15.556Z,39.37
2018-08-06T11:28:47.206Z,40.85
2018-08-06T11:31:21.762Z,41.25
2018-08-06T11:33:53.616Z,37.95
2018-08-06T11:36:24.705Z,34.21
2018-08-06T11:38:55.861Z,39.46
2018-08-06T11:41:26.585Z,38.78
2018-08-06T11:43:57.892Z,39.66
2018-08-06T11:46:28.550Z,38.99
2018-08-06T11:48:59.962Z,40.44
2018-08-06T11:51:31.401Z,38.31
2018-08-06T11:54:02.817Z,38.85
2018-08-06T11:56:33.594Z,39.26
2018-08-06T11:59:05.086Z,39.66
2018-08-06T12:01:36.525Z,38.29
2018-08-06T12:04:08.223Z,40.38
2018-08-06T12:06:39.716Z,38.27
2018-08-06T12:09:11.737Z,40.26
2018-08-06T12:11:42.933Z,40.34
2018-08-06T12:14:14.044Z,38.08
2018-08-06T12:16:45.720Z,40.68
2018-08-06T12:19:17.226Z,39.66
2018-08-06T12:21:48.705Z,36.25
2018-08-06T12:24:20.397Z,40.46
2018-08-06T12:26:51.756Z,36.26
2018-08-06T12:29:23.038Z,38.81
2018-08-06T12:31:54.692Z,38.35
2018-08-06T12:34:26.221Z,39.93
2018-08-06T12:36:57.766Z,37.27
2018-08-06T12:39:28.809Z,40.17
2018-08-06T12:41:59.665Z,39.33
2018-08-06T12:47:09.017Z,40.12
2018-08-06T12:49:40.665Z,41.09
2018-08-06T12:52:12.059Z,38.95
2018-08-06T12:54:43.755Z,40.15
2018-08-06T12:57:15.334Z,39.03
2018-08-06T12:59:46.912Z,37.42
2018-08-06T13:02:18.681Z,34.55
2018-08-06T13:05:01.575Z,39.81
2018-08-06T13:10:16.604Z,36.86
2018-08-06T13:12:58.838Z,40.32
2018-08-06T13:15:30.439Z,38.76
2018-08-06T13:18:01.755Z,35.20
2018-08-06T13:20:32.623Z,39.88
2018-08-06T13:23:03.748Z,33.42
2018-08-06T13:25:34.981Z,39.00
2018-08-06T13:28:05.894Z,37.81
2018-08-06T13:30:36.341Z,34.57
2018-08-06T13:33:07.840Z,34.21
2018-08-06T13:35:38.415Z,38.37
2018-08-06T13:38:09.595Z,38.77
2018-08-06T13:40:40.770Z,39.17
2018-08-06T13:43:11.634Z,38.50
2018-08-06T13:45:42.587Z,35.75
2018-08-06T13:54:03.819Z,40.18
2018-08-06T13:56:34.342Z,34.65
2018-08-06T13:59:05.765Z,37.87
2018-08-06T14:01:36.912Z,40.06
2018-08-06T14:04:07.835Z,40.39
2018-08-06T14:06:38.328Z,38.72
2018-08-06T14:09:12.616Z,35.46
2018-08-06T14:11:43.735Z,37.07
2018-08-06T14:14:14.991Z,37.86
2018-08-06T14:16:46.278Z,34.45
2018-08-06T14:19:17.860Z,37.12
2018-08-06T14:21:48.556Z,35.98
2018-08-06T14:24:20.018Z,34.43
2018-08-06T14:26:51.506Z,39.56
2018-08-06T14:29:23.208Z,36.45
2018-08-06T14:32:01.615Z,35.33
2018-08-06T14:34:33.228Z,37.96
2018-08-06T14:37:04.765Z,37.98
2018-08-06T14:39:36.209Z,34.16
2018-08-06T14:42:07.700Z,38.08
2018-08-06T14:44:39.590Z,36.80
2018-08-06T14:47:11.220Z,35.87
2018-08-06T14:49:42.644Z,39.18
2018-08-06T14:52:14.351Z,37.41
2018-08-06T14:54:45.834Z,35.14
2018-08-06T14:57:16.530Z,34.88
2018-08-06T14:59:48.233Z,35.83
2018-08-06T15:02:19.752Z,35.12
2018-08-06T15:04:51.455Z,32.68
2018-08-06T15:07:22.900Z,33.73
2018-08-06T15:09:53.684Z,34.21
2018-08-06T15:12:25.206Z,36.31
2018-08-06T15:14:56.713Z,38.30
2018-08-06T15:17:28.233Z,39.73
2018-08-06T15:20:01.745Z,39.65
2018-08-06T15:22:44.736Z,38.04
2018-08-06T15:25:21.360Z,40.71
2018-08-06T15:27:53.201Z,37.63
2018-08-06T15:30:25.581Z,35.73
2018-08-06T15:32:58.082Z,38.44
2018-08-06T15:35:29.697Z,39.74
2018-08-06T15:38:01.978Z,39.01
2018-08-06T15:40:33.475Z,37.96
2018-08-06T15:43:05.004Z,34.92
2018-08-06T15:45:36.629Z,34.29
2018-08-06T15:48:07.821Z,34.89
2018-08-06T15:50:38.586Z,36.69
2018-08-06T15:53:09.924Z,35.50
2018-08-06T15:55:41.375Z,38.67
2018-08-06T15:58:12.853Z,39.38
2018-08-06T16:00:44.473Z,40.69
2018-08-06T16:03:16.009Z,40.93
2018-08-06T16:05:47.419Z,40.78
2018-08-06T16:08:18.839Z,40.30
2018-08-06T16:10:49.541Z,41.06
2018-08-06T16:13:20.889Z,40.54
2018-08-06T16:15:51.614Z,40.65
2018-08-06T16:18:23.444Z,38.53
2018-08-06T16:20:55.221Z,37.20
2018-08-06T16:23:26.722Z,32.92
2018-08-06T16:25:58.225Z,37.40
2018-08-06T16:28:29.757Z,36.02
2018-08-06T16:31:01.507Z,37.98
2018-08-06T16:33:33.592Z,34.85
2018-08-06T16:36:05.233Z,36.35
2018-08-06T16:38:36.703Z,40.47
2018-08-06T16:41:08.385Z,36.70
2018-08-06T16:43:39.871Z,38.88
2018-08-06T16:46:11.281Z,37.16
2018-08-06T16:48:43.252Z,33.36
2018-08-06T16:51:14.732Z,35.91
2018-08-06T16:53:46.207Z,39.26
2018-08-06T16:56:17.709Z,38.34
2018-08-06T16:58:49.001Z,37.22
2018-08-06T17:01:20.665Z,37.30
2018-08-06T17:03:52.241Z,33.92
2018-08-06T17:06:23.715Z,34.32
2018-08-06T17:08:55.226Z,34.00
2018-08-06T17:11:26.728Z,38.55
2018-08-06T17:13:58.314Z,30.89
2018-08-06T17:16:42.697Z,31.26
2018-08-06T17:19:14.453Z,33.07
2018-08-06T17:21:45.881Z,33.26
2018-08-06T17:27:02.922Z,37.67
2018-08-06T17:29:33.976Z,34.15
2018-08-06T17:32:04.999Z,34.71
2018-08-06T18:15:01.460Z,34.25
2018-08-06T18:17:32.492Z,38.13
2018-08-06T18:20:03.519Z,37.25
2018-08-06T18:22:34.626Z,39.13
2018-08-06T18:25:07.427Z,35.41
2018-08-06T18:27:38.797Z,35.21
2018-08-06T18:30:14.882Z,34.36
2018-08-06T18:32:45.473Z,32.47
2018-08-06T18:35:17.855Z,38.15
2018-08-06T18:37:48.440Z,33.75
2018-08-06T18:40:20.760Z,37.79
2018-08-06T18:42:51.828Z,33.61
2018-08-06T18:45:22.661Z,32.88
2018-08-06T18:47:53.782Z,33.49
2018-08-06T18:50:24.914Z,34.12
2018-08-06T18:52:56.304Z,36.23
2018-08-06T18:55:27.627Z,36.40
2018-08-06T18:57:58.749Z,33.02
2018-08-06T19:00:29.799Z,32.63
2018-08-06T19:03:00.896Z,35.12
2018-08-06T19:05:31.352Z,34.22
2018-08-06T19:08:02.600Z,34.90
2018-08-06T19:10:33.740Z,34.34
2018-08-06T19:13:10.220Z,32.21
2018-08-06T19:15:41.768Z,33.70
2018-08-06T19:19:20.044Z,35.99
2018-08-06T19:21:52.333Z,35.20
2018-08-06T19:24:28.576Z,34.92
2018-08-06T19:26:59.645Z,34.15
2018-08-06T19:29:30.775Z,35.28
2018-08-06T19:32:02.357Z,36.07
2018-08-06T19:34:33.806Z,34.35
2018-08-06T19:37:10.021Z,35.17
2018-08-06T19:39:41.462Z,35.64
2018-08-06T19:42:12.823Z,37.72
2018-08-06T19:44:43.555Z,34.70
2018-08-06T19:47:15.204Z,37.51
2018-08-06T19:49:51.434Z,36.93
2018-08-06T19:52:23.744Z,37.18
2018-08-06T19:54:59.656Z,36.59
2018-08-06T19:57:31.193Z,36.78
2018-08-06T20:00:02.827Z,36.95
2018-08-06T20:08:14.588Z,38.44
2018-08-06T20:10:45.718Z,38.64
2018-08-06T20:13:23.208Z,39.28
2018-08-06T20:18:41.218Z,38.56
2018-08-06T20:21:12.470Z,38.37
2018-08-06T20:23:43.671Z,37.51
2018-08-06T20:26:14.755Z,38.43
2018-08-06T20:28:45.619Z,38.35
2018-08-06T20:31:16.494Z,38.34
2018-08-06T20:33:47.748Z,38.79
2018-08-06T20:36:18.860Z,38.70
2018-08-06T20:38:49.766Z,38.67
2018-08-06T20:41:20.861Z,39.12
2018-08-06T20:43:51.355Z,38.63
2018-08-06T20:46:29.624Z,39.26
2018-08-06T20:49:00.748Z,39.59
2018-08-06T20:51:31.875Z,39.03
2018-08-06T20:54:02.383Z,39.04
2018-08-06T20:56:33.647Z,39.26
2018-08-06T20:59:04.710Z,38.56
2018-08-06T21:07:45.616Z,40.17
2018-08-06T21:10:17.567Z,38.71
2018-08-06T21:15:37.781Z,39.50
2018-08-06T21:18:09.275Z,37.90
2018-08-06T21:20:40.594Z,35.83
2018-08-06T21:23:11.723Z,37.33
2018-08-06T21:25:43.312Z,37.52
2018-08-06T21:28:14.619Z,37.65
2018-08-06T21:30:45.798Z,35.04
2018-08-06T21:33:16.869Z,36.86
2018-08-06T21:35:47.512Z,36.69
2018-08-06T21:38:18.625Z,35.04
2018-08-06T21:40:49.710Z,38.24
2018-08-06T21:43:20.828Z,35.80
2018-08-06T21:45:51.473Z,35.48
2018-08-06T21:48:22.573Z,37.59
2018-08-06T21:50:53.676Z,37.05
2018-08-06T21:53:24.714Z,35.62
2018-08-06T21:55:55.705Z,37.46
2018-08-06T21:58:26.688Z,37.43
2018-08-06T22:00:57.717Z,34.88
2018-08-06T22:03:28.811Z,37.70
2018-08-06T22:05:59.840Z,36.40
2018-08-06T22:08:30.319Z,36.93
2018-08-06T22:11:01.582Z,37.63
2018-08-06T22:13:32.711Z,37.55
2018-08-06T22:16:03.716Z,35.66
2018-08-06T22:18:35.191Z,36.58
2018-08-06T22:21:11.551Z,36.32
2018-08-06T22:23:42.670Z,37.04
2018-08-06T22:26:13.766Z,37.83
2018-08-06T22:28:44.716Z,37.01
2018-08-06T22:31:15.717Z,36.74
2018-08-06T22:33:46.847Z,37.89
2018-08-06T22:38:55.500Z,38.90
2018-08-06T22:41:26.642Z,37.15
2018-08-06T22:43:57.708Z,38.55
2018-08-06T22:46:29.359Z,39.34
2018-08-06T22:49:00.645Z,39.20
2018-08-06T22:51:38.656Z,37.57
2018-08-06T22:54:09.700Z,38.34
2018-08-06T22:56:40.730Z,39.31
2018-08-06T22:59:11.850Z,39.26
2018-08-06T23:01:42.377Z,39.78
2018-08-06T23:04:13.672Z,39.76
2018-08-06T23:06:44.801Z,38.65
2018-08-06T23:09:16.051Z,38.86
2018-08-06T23:11:47.550Z,39.30
2018-08-06T23:14:18.775Z,39.99
2018-08-06T23:16:50.305Z,39.84
2018-08-06T23:19:21.740Z,39.92
2018-08-06T23:21:54.320Z,40.01
2018-08-06T23:24:25.793Z,40.09
2018-08-06T23:26:57.278Z,40.09
2018-08-06T23:31:21.312Z,39.47
2018-08-06T23:33:52.571Z,39.41
2018-08-06T23:36:23.686Z,38.50
2018-08-06T23:38:55.308Z,39.65
2018-08-06T23:41:26.453Z,39.25
2018-08-06T23:43:57.698Z,39.71
2018-08-06T23:46:28.733Z,39.74
2018-08-06T23:48:59.832Z,39.38
2018-08-06T23:51:30.321Z,39.60
2018-08-06T23:54:01.657Z,39.91
2018-08-06T23:56:32.643Z,38.12
2018-08-06T23:59:03.665Z,39.05
